Time;durP1;ratioP1;P1;durP2;ratioP2;P2;SDS_P1;SDS_P2;PMS_P1;PMS_P2;Temp;Humidity;BMP_temperature;BMP_pressure;BME280_temperature;BME280_humidity;BME280_pressure;Samples;Min_cycle;Max_cycle;Signal;HPM_P1;HPM_P2
2021/01/26 00:00:16;;;;;;;177.60;48.00;;;;;;;5.96;88.60;96966.69;124266;1147;22718;-58
2021/01/26 00:02:45;;;;;;;126.65;39.00;;;;;;;5.93;88.33;96967.27;124547;1147;23486;-59
2021/01/26 00:05:13;;;;;;;45.15;18.35;;;;;;;5.91;88.10;96957.87;124213;1147;22836;-58
2021/01/26 00:07:40;;;;;;;101.35;30.75;;;;;;;5.87;88.58;96957.60;124356;1147;22737;-59
2021/01/26 00:10:08;;;;;;;93.55;28.30;;;;;;;5.83;88.68;96956.56;124342;1147;22687;-59
2021/01/26 00:12:36;;;;;;;139.05;41.05;;;;;;;5.81;88.65;96958.75;124311;1148;23489;-58
2021/01/26 00:15:04;;;;;;;59.35;29.75;;;;;;;5.78;88.66;96956.62;124417;1147;22712;-58
2021/01/26 00:17:36;;;;;;;63.33;21.40;;;;;;;5.74;88.32;96968.31;124388;1147;22681;-58
2021/01/26 00:20:09;;;;;;;71.30;25.55;;;;;;;5.71;88.69;96960.78;124169;1148;22691;-58
2021/01/26 00:22:36;;;;;;;55.20;20.35;;;;;;;5.67;88.87;96961.36;124297;1147;22663;-58
2021/01/26 00:25:05;;;;;;;23.90;11.15;;;;;;;5.63;88.20;96956.81;124232;1147;22681;-58
2021/01/26 00:27:33;;;;;;;84.15;30.95;;;;;;;5.58;89.00;96948.79;124243;1145;22736;-59
2021/01/26 00:30:00;;;;;;;44.25;16.70;;;;;;;5.55;88.38;96943.95;124338;1148;22696;-58
2021/01/26 00:32:28;;;;;;;26.75;13.30;;;;;;;5.54;89.09;96953.16;124173;1147;22716;-58
2021/01/26 00:34:55;;;;;;;13.40;8.10;;;;;;;5.51;89.05;96956.42;124345;1147;22662;-58
2021/01/26 00:37:24;;;;;;;19.35;10.10;;;;;;;5.49;89.22;96950.50;124212;1146;22701;-58
2021/01/26 00:39:51;;;;;;;42.90;17.40;;;;;;;5.47;88.64;96950.81;124240;1146;22701;-59
2021/01/26 00:42:19;;;;;;;17.30;10.20;;;;;;;5.48;88.66;96957.80;124135;1147;22719;-59
2021/01/26 00:44:47;;;;;;;13.00;7.10;;;;;;;5.47;89.15;96952.71;124254;1147;22737;-59
2021/01/26 00:47:14;;;;;;;37.75;16.35;;;;;;;5.45;88.82;96939.49;124251;1147;22713;-58
2021/01/26 00:49:42;;;;;;;14.77;8.73;;;;;;;5.48;88.88;96943.52;124393;1148;23496;-58
2021/01/26 00:52:11;;;;;;;10.13;5.87;;;;;;;5.49;89.31;96929.70;124151;1148;22699;-58
2021/01/26 00:54:39;;;;;;;10.23;6.17;;;;;;;5.50;88.82;96942.11;124114;1147;23581;-58
2021/01/26 00:57:07;;;;;;;6.95;4.95;;;;;;;5.51;89.15;96941.02;124104;1148;22697;-58
2021/01/26 00:59:34;;;;;;;9.50;6.63;;;;;;;5.51;89.19;96948.32;124250;1149;23800;-58
2021/01/26 01:02:02;;;;;;;7.60;5.63;;;;;;;5.52;88.97;96974.23;124322;1147;22696;-58
2021/01/26 01:04:30;;;;;;;2.87;2.50;;;;;;;5.53;88.54;96984.75;124144;1148;22680;-58
2021/01/26 01:06:57;;;;;;;1.50;1.20;;;;;;;5.48;88.34;97000.23;124252;1146;23359;-59
2021/01/26 01:09:24;;;;;;;0.65;0.65;;;;;;;5.35;87.17;96988.19;124183;1146;22698;-58
2021/01/26 01:11:52;;;;;;;0.80;0.70;;;;;;;5.16;86.58;97000.82;124457;1146;22690;-58
2021/01/26 01:14:20;;;;;;;0.70;0.70;;;;;;;4.93;85.45;97000.47;124165;1148;22694;-58
2021/01/26 01:16:47;;;;;;;1.10;0.87;;;;;;;4.68;84.84;97003.39;124359;1146;22754;-58
2021/01/26 01:19:15;;;;;;;1.70;1.60;;;;;;;4.43;84.36;97019.75;124119;1147;22679;-58
2021/01/26 01:21:42;;;;;;;1.10;1.00;;;;;;;4.20;84.37;97026.61;124271;1147;22688;-58
2021/01/26 01:24:10;;;;;;;1.40;1.05;;;;;;;4.02;84.25;97032.66;124015;1148;22761;-59
2021/01/26 01:26:37;;;;;;;1.60;1.30;;;;;;;3.87;84.14;97022.75;121676;1148;22927;-58
2021/01/26 01:29:05;;;;;;;0.80;0.80;;;;;;;3.70;83.96;97023.09;119839;1148;22942;-58
2021/01/26 01:31:32;;;;;;;2.70;1.20;;;;;;;3.56;84.46;97040.91;119918;1148;22950;-58
2021/01/26 01:34:00;;;;;;;1.15;1.05;;;;;;;3.39;84.13;97048.48;124075;1147;22754;-59
2021/01/26 01:36:27;;;;;;;2.45;1.25;;;;;;;3.26;83.64;97049.84;124416;1148;22697;-58
2021/01/26 01:38:54;;;;;;;1.47;1.10;;;;;;;3.10;83.76;97067.08;124145;1146;25690;-58
2021/01/26 01:41:22;;;;;;;2.13;1.50;;;;;;;2.96;83.76;97080.27;124359;1147;22699;-58
2021/01/26 01:43:50;;;;;;;3.33;1.60;;;;;;;2.87;83.90;97084.58;124170;1146;22705;-59
2021/01/26 01:46:19;;;;;;;1.65;1.25;;;;;;;2.80;84.57;97092.09;124206;1147;22759;-58
2021/01/26 01:48:47;;;;;;;3.75;1.30;;;;;;;2.72;84.45;97101.50;124145;1149;22707;-59
2021/01/26 01:51:17;;;;;;;1.85;1.30;;;;;;;2.64;84.74;97107.39;124151;1148;22672;-58
2021/01/26 01:54:06;;;;;;;2.23;1.53;;;;;;;2.57;83.96;97112.23;124182;1148;23113;-58
2021/01/26 01:56:42;;;;;;;1.80;1.40;;;;;;;2.49;84.60;97126.16;121729;1148;26366;-58
2021/01/26 01:59:18;;;;;;;2.10;1.50;;;;;;;2.39;84.63;97135.02;124314;1146;23308;-59
2021/01/26 02:01:45;;;;;;;3.75;1.70;;;;;;;2.36;84.38;97145.47;124128;1146;22682;-59
2021/01/26 02:04:15;;;;;;;3.70;1.55;;;;;;;2.34;84.76;97140.36;124153;1148;22661;-58
2021/01/26 02:06:43;;;;;;;1.87;1.27;;;;;;;2.30;84.24;97141.98;123960;1148;22709;-58
2021/01/26 02:09:22;;;;;;;2.20;1.55;;;;;;;2.26;84.54;97154.31;124301;1147;23339;-59
2021/01/26 02:11:50;;;;;;;1.90;1.50;;;;;;;2.20;85.10;97155.35;124152;1148;22691;-59
2021/01/26 02:14:17;;;;;;;1.60;1.35;;;;;;;2.13;84.50;97165.55;124249;1146;22817;-58
2021/01/26 02:16:52;;;;;;;2.50;1.90;;;;;;;2.10;84.68;97174.11;124032;1148;22667;-58
2021/01/26 02:19:31;;;;;;;2.10;1.70;;;;;;;2.04;84.38;97178.64;124179;1148;22664;-58
2021/01/26 02:22:07;;;;;;;2.33;1.73;;;;;;;1.99;84.97;97191.25;124176;1145;22720;-58
2021/01/26 02:24:58;;;;;;;2.42;1.55;;;;;;;1.93;84.74;97194.96;124282;1146;22691;-58
2021/01/26 02:27:34;;;;;;;3.05;1.85;;;;;;;1.88;84.73;97202.97;124099;1148;22768;-58
2021/01/26 02:30:23;;;;;;;2.40;1.57;;;;;;;1.85;84.75;97203.52;124259;1148;22687;-58
2021/01/26 02:33:04;;;;;;;2.43;1.20;;;;;;;1.82;84.65;97212.08;124189;1147;22683;-58
2021/01/26 02:36:17;;;;;;;1.80;1.30;;;;;;;1.77;85.59;97221.70;124332;1148;22660;-58
2021/01/26 02:39:00;;;;;;;1.90;1.40;;;;;;;1.73;85.20;97236.70;124220;1146;22772;-58
2021/01/26 02:41:51;;;;;;;2.13;1.40;;;;;;;1.69;85.43;97246.36;124138;1146;22685;-59
2021/01/26 02:44:43;;;;;;;2.40;1.60;;;;;;;1.69;84.77;97245.55;124106;1149;23311;-58
2021/01/26 02:47:16;;;;;;;2.53;1.80;;;;;;;1.63;85.16;97247.38;124042;1149;22729;-58
2021/01/26 02:49:56;;;;;;;2.10;1.33;;;;;;;1.56;85.02;97237.94;124160;1148;24415;-59
2021/01/26 02:52:35;;;;;;;2.13;1.60;;;;;;;1.62;85.15;97250.31;123944;1148;22739;-58
2021/01/26 02:55:24;;;;;;;3.53;2.17;;;;;;;1.57;84.59;97264.52;124018;1149;23281;-58
2021/01/26 02:57:53;;;;;;;4.17;2.40;;;;;;;1.50;84.36;97271.95;124234;1145;22716;-58
2021/01/26 03:00:25;;;;;;;6.00;2.70;;;;;;;1.45;84.89;97277.27;124133;1148;22690;-58
2021/01/26 03:03:00;;;;;;;5.97;3.70;;;;;;;1.40;84.87;97277.23;124018;1148;23656;-58
2021/01/26 03:05:44;;;;;;;6.10;3.60;;;;;;;1.33;84.45;97268.56;124268;1148;22717;-58
2021/01/26 03:08:15;;;;;;;7.20;4.60;;;;;;;1.25;84.51;97277.90;124075;1148;22678;-58
2021/01/26 03:10:51;;;;;;;7.73;4.10;;;;;;;1.23;84.83;97277.34;124191;1148;22666;-58
2021/01/26 03:13:19;;;;;;;6.57;4.43;;;;;;;1.21;84.55;97265.23;123925;1148;22769;-59
2021/01/26 03:15:53;;;;;;;8.43;4.43;;;;;;;1.22;84.86;97269.54;124198;1148;22793;-59
2021/01/26 03:18:21;;;;;;;8.23;5.10;;;;;;;1.21;85.27;97257.19;124173;1148;22681;-58
2021/01/26 03:20:53;;;;;;;6.55;4.35;;;;;;;1.21;84.92;97267.92;124280;1147;23395;-58
2021/01/26 03:23:23;;;;;;;6.50;4.43;;;;;;;1.21;85.06;97267.92;124122;1148;22718;-58
2021/01/26 03:25:51;;;;;;;8.83;5.67;;;;;;;1.19;84.66;97280.77;124176;1148;22690;-59
2021/01/26 03:28:19;;;;;;;8.80;5.37;;;;;;;1.21;84.27;97286.70;124085;1147;22681;-58
2021/01/26 03:30:48;;;;;;;11.05;6.15;;;;;;;1.22;84.90;97301.72;124311;1147;23449;-58
2021/01/26 03:33:23;;;;;;;9.10;6.10;;;;;;;1.21;84.15;97298.23;124081;1146;22745;-58
2021/01/26 03:35:51;;;;;;;8.05;5.35;;;;;;;1.14;84.69;97296.83;122875;1148;23221;-57
2021/01/26 03:38:21;;;;;;;7.37;5.20;;;;;;;1.24;84.17;97318.37;124098;1147;22807;-58
2021/01/26 03:40:50;;;;;;;8.50;5.70;;;;;;;1.23;84.06;97309.52;124408;1148;22776;-58
2021/01/26 03:43:18;;;;;;;9.00;5.97;;;;;;;1.24;85.16;97313.83;124403;1145;22666;-58
2021/01/26 03:45:46;;;;;;;9.35;6.60;;;;;;;1.27;84.12;97325.93;124269;1148;22730;-59
2021/01/26 03:48:25;;;;;;;12.10;7.40;;;;;;;1.24;84.36;97315.70;124127;1148;22760;-59
2021/01/26 03:51:06;;;;;;;10.43;7.33;;;;;;;1.23;84.65;97322.94;124119;1148;22692;-58
2021/01/26 03:53:50;;;;;;;10.47;6.70;;;;;;;1.24;84.43;97323.75;124183;1148;22695;-58
2021/01/26 03:57:02;;;;;;;10.67;7.23;;;;;;;1.25;84.21;97330.73;124200;1148;25079;-58
2021/01/26 03:59:45;;;;;;;11.20;7.00;;;;;;;1.26;83.67;97337.72;123894;1151;22742;-58
2021/01/26 04:02:22;;;;;;;11.90;7.63;;;;;;;1.25;83.55;97346.83;124175;1151;22698;-58
2021/01/26 04:04:51;;;;;;;12.65;7.58;;;;;;;1.24;84.12;97345.20;123766;1149;22814;-59
2021/01/26 04:07:30;;;;;;;12.53;8.53;;;;;;;1.23;83.66;97347.08;120001;1151;26113;-58
2021/01/26 04:09:59;;;;;;;13.43;9.60;;;;;;;1.21;83.95;97345.70;123916;1151;22715;-58
2021/01/26 04:12:29;;;;;;;13.10;9.07;;;;;;;1.20;83.21;97349.44;123921;1151;22764;-58
2021/01/26 04:15:11;;;;;;;11.03;7.30;;;;;;;1.21;83.62;97351.06;123732;1151;22693;-58
2021/01/26 04:17:47;;;;;;;10.83;7.73;;;;;;;1.21;83.11;97343.02;123861;1151;22728;-58
2021/01/26 04:20:18;;;;;;;11.07;7.57;;;;;;;1.19;83.34;97356.67;123778;1151;22719;-58
2021/01/26 04:22:51;;;;;;;13.80;8.45;;;;;;;1.17;83.89;97357.98;123920;1151;22702;-58
2021/01/26 04:25:38;;;;;;;16.00;8.65;;;;;;;1.18;83.67;97364.97;123922;1151;22734;-58
2021/01/26 04:28:45;;;;;;;16.25;9.40;;;;;;;1.14;83.76;97364.69;124107;1151;22725;-58
2021/01/26 04:31:12;;;;;;;14.57;10.03;;;;;;;1.12;83.48;97374.03;124093;1151;22802;-58
2021/01/26 04:33:41;;;;;;;12.80;8.77;;;;;;;1.10;83.38;97374.28;124011;1149;22724;-58
2021/01/26 04:36:09;;;;;;;14.33;8.33;;;;;;;1.10;82.51;97374.28;123877;1147;22685;-58
2021/01/26 04:38:36;;;;;;;13.80;8.15;;;;;;;1.10;83.13;97381.52;124366;1147;22771;-58
2021/01/26 04:41:10;;;;;;;18.15;9.60;;;;;;;1.09;82.76;97379.89;124180;1148;22713;-58
2021/01/26 04:43:58;;;;;;;14.30;9.03;;;;;;;1.06;82.15;97392.73;124205;1148;22696;-58
2021/01/26 04:47:04;;;;;;;16.05;9.10;;;;;;;1.06;82.15;97395.41;124092;1148;22791;-58
2021/01/26 04:49:40;;;;;;;17.85;8.95;;;;;;;1.08;82.82;97402.40;124281;1146;22756;-58
2021/01/26 04:52:24;;;;;;;12.83;8.23;;;;;;;1.08;82.36;97403.20;124095;1146;22679;-58
2021/01/26 04:55:37;;;;;;;13.80;7.60;;;;;;;1.10;82.37;97403.78;124364;1148;22713;-58
2021/01/26 04:58:16;;;;;;;8.90;6.10;;;;;;;1.14;82.13;97415.63;123844;1151;22717;-58
2021/01/26 05:01:08;;;;;;;13.87;7.53;;;;;;;1.15;81.93;97422.63;124034;1151;22719;-58
2021/01/26 05:03:45;;;;;;;13.10;7.97;;;;;;;1.15;81.26;97427.98;123795;1150;22815;-58
2021/01/26 05:06:15;;;;;;;17.12;9.13;;;;;;;1.15;81.48;97427.17;123887;1151;22739;-58
2021/01/26 05:08:43;;;;;;;14.73;8.87;;;;;;;1.14;80.74;97431.73;123782;1151;22896;-58
2021/01/26 05:11:16;;;;;;;18.47;10.43;;;;;;;1.12;81.14;97431.16;123984;1150;22793;-58
2021/01/26 05:13:47;;;;;;;15.25;9.00;;;;;;;1.11;80.27;97437.58;124023;1151;22688;-58
2021/01/26 05:16:30;;;;;;;17.05;9.85;;;;;;;1.12;81.06;97436.52;124145;1151;22876;-59
2021/01/26 05:19:10;;;;;;;13.00;7.60;;;;;;;1.13;80.91;97443.52;123673;1151;22839;-58
2021/01/26 05:21:46;;;;;;;13.63;7.33;;;;;;;1.15;80.71;97454.80;123805;1152;22731;-58
2021/01/26 05:24:22;;;;;;;19.13;9.87;;;;;;;1.16;79.94;97466.31;123908;1151;23521;-58
2021/01/26 05:26:50;;;;;;;18.53;9.50;;;;;;;1.16;80.74;97463.63;124075;1150;22749;-58
2021/01/26 05:29:17;;;;;;;17.60;9.30;;;;;;;1.16;80.48;97474.36;123770;1151;22914;-58
2021/01/26 05:31:48;;;;;;;17.13;8.73;;;;;;;1.17;80.21;97476.80;124032;1151;22718;-58
2021/01/26 05:34:16;;;;;;;18.93;8.43;;;;;;;1.19;79.85;97476.55;123779;1148;22696;-59
2021/01/26 05:36:45;;;;;;;18.93;8.10;;;;;;;1.22;79.60;97486.80;124225;1148;22725;-58
2021/01/26 05:39:22;;;;;;;8.95;6.05;;;;;;;1.23;79.58;97491.91;124128;1148;22655;-58
2021/01/26 05:41:49;;;;;;;18.90;8.53;;;;;;;1.24;79.50;97501.59;124230;1148;22704;-58
2021/01/26 05:44:16;;;;;;;19.90;9.20;;;;;;;1.27;80.08;97502.97;124162;1148;22655;-57
2021/01/26 05:46:45;;;;;;;16.35;8.00;;;;;;;1.28;78.83;97494.67;124173;1148;22759;-58
2021/01/26 05:49:35;;;;;;;12.30;6.85;;;;;;;1.28;79.06;97505.41;124204;1148;22693;-58
2021/01/26 05:52:06;;;;;;;17.15;7.95;;;;;;;1.29;79.23;97503.53;124258;1148;22805;-57
2021/01/26 05:54:35;;;;;;;15.45;7.85;;;;;;;1.28;78.89;97504.59;124242;1148;22768;-58
2021/01/26 05:57:02;;;;;;;9.40;5.77;;;;;;;1.28;78.77;97493.86;124183;1149;22684;-57
2021/01/26 05:59:35;;;;;;;11.25;6.10;;;;;;;1.28;78.84;97499.23;123949;1149;22685;-58
2021/01/26 06:02:17;;;;;;;13.00;5.70;;;;;;;1.28;78.84;97509.95;124537;1147;23445;-58
2021/01/26 06:04:44;;;;;;;15.30;7.30;;;;;;;1.28;78.35;97509.95;124352;1146;22685;-57
2021/01/26 06:07:16;;;;;;;14.97;7.20;;;;;;;1.29;78.02;97519.62;124483;1146;22696;-57
2021/01/26 06:09:44;;;;;;;10.30;6.15;;;;;;;1.30;78.83;97522.04;124333;1146;22699;-58
2021/01/26 06:12:12;;;;;;;10.23;5.50;;;;;;;1.30;77.93;97540.81;124484;1146;23547;-58
2021/01/26 06:14:41;;;;;;;9.27;6.03;;;;;;;1.31;78.53;97538.95;124258;1146;23438;-59
2021/01/26 06:17:17;;;;;;;10.60;5.80;;;;;;;1.32;78.78;97545.94;120987;1147;22942;-59
2021/01/26 06:19:45;;;;;;;8.97;5.47;;;;;;;1.33;77.48;97556.42;124382;1146;22781;-59
2021/01/26 06:22:31;;;;;;;8.45;5.05;;;;;;;1.33;77.87;97560.98;124459;1146;22822;-59
2021/01/26 06:25:00;;;;;;;10.10;5.97;;;;;;;1.33;78.28;97552.92;124355;1145;22756;-60
2021/01/26 06:27:55;;;;;;;10.13;6.00;;;;;;;1.33;78.55;97563.66;124343;1148;23832;-61
2021/01/26 06:30:32;;;;;;;8.85;5.35;;;;;;;1.33;78.19;97569.02;124288;1147;22686;-62
2021/01/26 06:33:27;;;;;;;10.15;5.80;;;;;;;1.33;77.31;97571.70;124466;1146;22759;-61
2021/01/26 06:36:19;;;;;;;10.80;6.30;;;;;;;1.35;77.57;97574.96;124410;1146;22669;-63
2021/01/26 06:38:58;;;;;;;9.60;5.50;;;;;;;1.38;78.22;97586.02;124508;1146;22678;-60
2021/01/26 06:41:38;;;;;;;11.97;6.37;;;;;;;1.38;77.72;97580.66;124361;1146;22717;-62
2021/01/26 06:44:30;;;;;;;11.53;5.83;;;;;;;1.40;77.30;97597.32;124375;1147;22687;-63
2021/01/26 06:47:24;;;;;;;11.05;6.20;;;;;;;1.41;77.93;97596.27;120996;1146;22913;-60
2021/01/26 06:50:04;;;;;;;9.67;6.40;;;;;;;1.42;78.92;97607.81;124460;1146;22675;-60
2021/01/26 06:52:44;;;;;;;11.60;6.50;;;;;;;1.43;77.51;97617.48;124318;1146;22701;-59
2021/01/26 06:55:22;;;;;;;11.00;6.40;;;;;;;1.44;78.03;97619.11;124493;1145;22658;-60
2021/01/26 06:58:00;;;;;;;13.17;6.50;;;;;;;1.43;78.06;97622.85;124320;1146;22659;-60
2021/01/26 07:00:52;;;;;;;14.75;7.40;;;;;;;1.45;78.27;97628.76;124522;1147;22721;-60
2021/01/26 07:03:30;;;;;;;13.40;6.83;;;;;;;1.48;77.65;97630.95;124249;1145;23457;-62
2021/01/26 07:06:03;;;;;;;8.73;5.57;;;;;;;1.48;77.75;97639.01;124526;1146;22698;-61
2021/01/26 07:08:30;;;;;;;10.63;5.60;;;;;;;1.50;77.89;97636.89;124302;1146;23361;-62
2021/01/26 07:11:03;;;;;;;14.10;6.80;;;;;;;1.52;77.54;97653.57;124546;1146;22699;-61
2021/01/26 07:13:45;;;;;;;11.07;5.33;;;;;;;1.52;77.67;97666.98;124291;1145;24005;-62
2021/01/26 07:16:33;;;;;;;11.20;6.00;;;;;;;1.52;77.55;97669.67;122460;1146;22930;-61
2021/01/26 07:19:38;;;;;;;11.70;6.60;;;;;;;1.51;77.56;97670.72;119862;1146;23043;-59
2021/01/26 07:22:11;;;;;;;9.15;5.60;;;;;;;1.51;78.04;97670.72;119408;1150;26373;-59
2021/01/26 07:25:16;;;;;;;10.77;5.80;;;;;;;1.51;77.38;97668.05;124059;1150;23683;-59
2021/01/26 07:27:55;;;;;;;8.80;5.80;;;;;;;1.50;77.03;97676.34;124009;1150;23488;-60
2021/01/26 07:30:52;;;;;;;9.57;5.03;;;;;;;1.50;77.45;97673.66;124213;1149;22773;-60
2021/01/26 07:33:31;;;;;;;9.87;4.70;;;;;;;1.53;76.54;97673.98;123990;1149;22748;-59
2021/01/26 07:36:20;;;;;;;9.10;5.15;;;;;;;1.56;77.07;97678.86;124143;1149;22783;-59
2021/01/26 07:38:59;;;;;;;8.73;5.10;;;;;;;1.59;76.65;97686.41;123947;1148;22760;-58
2021/01/26 07:41:36;;;;;;;10.15;5.25;;;;;;;1.60;76.81;97701.45;124179;1149;22699;-59
2021/01/26 07:44:40;;;;;;;7.20;4.55;;;;;;;1.60;76.69;97688.03;123976;1149;22818;-60
2021/01/26 07:47:38;;;;;;;7.03;4.47;;;;;;;1.61;76.32;97702.27;123773;1152;23063;-60
2021/01/26 07:50:22;;;;;;;8.25;4.45;;;;;;;1.60;76.73;97704.13;123647;1153;22898;-60
2021/01/26 07:52:51;;;;;;;10.00;5.10;;;;;;;1.60;75.91;97706.82;123897;1152;23740;-60
2021/01/26 07:55:37;;;;;;;8.90;5.03;;;;;;;1.61;77.14;97707.63;123694;1153;23313;-62
2021/01/26 07:58:06;;;;;;;8.37;4.33;;;;;;;1.61;76.10;97713.81;123837;1152;23324;-62
2021/01/26 08:00:35;;;;;;;9.05;4.40;;;;;;;1.62;76.70;97726.18;123836;1149;22701;-59
2021/01/26 08:03:03;;;;;;;6.10;4.10;;;;;;;1.62;76.34;97722.68;123998;1149;22784;-58
2021/01/26 08:05:42;;;;;;;7.67;4.60;;;;;;;1.62;75.95;97728.05;123952;1149;23731;-58
2021/01/26 08:08:21;;;;;;;9.63;4.40;;;;;;;1.61;76.26;97732.60;124208;1149;22912;-59
2021/01/26 08:11:08;;;;;;;6.80;4.35;;;;;;;1.64;76.23;97739.36;123800;1149;22721;-60
2021/01/26 08:13:40;;;;;;;8.33;4.60;;;;;;;1.62;76.00;97744.97;124113;1149;22717;-58
2021/01/26 08:16:15;;;;;;;7.53;4.10;;;;;;;1.62;75.75;97734.23;123922;1150;23209;-57
2021/01/26 08:18:43;;;;;;;9.07;5.40;;;;;;;1.61;76.08;97734.47;124064;1150;22734;-60
2021/01/26 08:21:30;;;;;;;12.60;7.27;;;;;;;1.59;75.34;97750.81;124072;1146;22704;-60
2021/01/26 08:24:34;;;;;;;10.13;5.40;;;;;;;1.61;75.96;97758.63;124393;1146;22751;-61
2021/01/26 08:27:20;;;;;;;8.13;4.03;;;;;;;1.59;75.60;97758.87;124052;1149;22901;-57
2021/01/26 08:29:47;;;;;;;7.27;4.27;;;;;;;1.59;76.26;97766.92;123972;1149;23498;-57
2021/01/26 08:32:27;;;;;;;5.97;3.60;;;;;;;1.62;76.28;97774.49;124094;1149;22714;-58
2021/01/26 08:34:58;;;;;;;6.45;3.35;;;;;;;1.63;75.65;97772.62;123937;1150;22788;-57
2021/01/26 08:37:43;;;;;;;5.97;3.37;;;;;;;1.65;75.60;97791.98;124185;1149;22683;-57
2021/01/26 08:40:11;;;;;;;5.37;3.47;;;;;;;1.65;74.80;97792.80;124120;1149;22733;-58
2021/01/26 08:42:41;;;;;;;5.60;2.90;;;;;;;1.66;74.71;97799.80;124093;1150;22710;-58
2021/01/26 08:45:36;;;;;;;9.10;4.80;;;;;;;1.66;75.80;97797.12;123948;1150;22729;-58
2021/01/26 08:48:07;;;;;;;5.90;3.20;;;;;;;1.66;75.02;97805.17;124026;1150;22781;-59
2021/01/26 08:50:45;;;;;;;6.45;3.40;;;;;;;1.68;74.80;97821.04;123844;1149;22727;-58
2021/01/26 08:53:22;;;;;;;7.00;4.00;;;;;;;1.66;74.85;97804.36;124115;1150;22720;-60
2021/01/26 08:56:01;;;;;;;15.47;6.50;;;;;;;1.66;75.60;97818.59;124010;1150;22724;-59
2021/01/26 08:58:48;;;;;;;6.73;3.37;;;;;;;1.66;74.89;97821.28;124052;1150;22727;-59
2021/01/26 09:01:22;;;;;;;4.60;3.50;;;;;;;1.65;75.29;97819.64;124103;1147;22720;-59
2021/01/26 09:03:51;;;;;;;5.80;2.53;;;;;;;1.66;74.49;97831.20;124398;1146;22674;-59
2021/01/26 09:06:28;;;;;;;6.65;3.40;;;;;;;1.67;74.62;97841.70;124238;1146;22674;-59
2021/01/26 09:08:57;;;;;;;6.78;3.98;;;;;;;1.66;74.73;97832.02;124476;1146;22718;-58
2021/01/26 09:11:43;;;;;;;5.03;2.50;;;;;;;1.66;74.25;97840.06;124191;1146;22706;-59
2021/01/26 09:14:37;;;;;;;5.27;3.17;;;;;;;1.65;74.23;97848.36;124324;1146;22700;-59
2021/01/26 09:17:07;;;;;;;4.55;2.70;;;;;;;1.63;74.67;97847.78;124100;1146;22788;-58
2021/01/26 09:19:46;;;;;;;5.43;3.10;;;;;;;1.54;74.73;97854.61;124387;1146;23753;-59
2021/01/26 09:22:20;;;;;;;6.40;2.93;;;;;;;1.63;73.68;97866.57;124284;1146;23166;-59
2021/01/26 09:24:48;;;;;;;4.25;2.65;;;;;;;1.62;73.92;97875.67;124411;1146;22709;-59
2021/01/26 09:27:17;;;;;;;4.17;2.60;;;;;;;1.62;73.63;97889.09;124293;1147;23771;-59
2021/01/26 09:29:45;;;;;;;6.60;3.05;;;;;;;1.61;73.49;97885.59;124450;1146;23708;-59
2021/01/26 09:32:13;;;;;;;5.65;3.00;;;;;;;1.60;73.98;97883.97;124356;1146;22777;-59
2021/01/26 09:34:40;;;;;;;5.13;2.80;;;;;;;1.57;73.39;97889.84;124292;1146;22662;-59
2021/01/26 09:37:16;;;;;;;4.70;3.20;;;;;;;1.58;74.15;97891.47;124251;1146;22667;-58
2021/01/26 09:39:43;;;;;;;5.90;2.65;;;;;;;1.59;73.77;97889.58;124366;1147;22688;-58
2021/01/26 09:42:20;;;;;;;6.33;3.17;;;;;;;1.57;74.19;97886.34;124504;1146;22793;-59
2021/01/26 09:44:58;;;;;;;5.57;3.07;;;;;;;1.54;74.50;97893.00;124444;1145;24102;-58
2021/01/26 09:47:27;;;;;;;6.03;3.23;;;;;;;1.48;74.04;97888.58;124359;1146;25289;-58
2021/01/26 09:50:00;;;;;;;6.07;3.20;;;;;;;1.56;74.61;97906.18;124387;1146;22712;-59
2021/01/26 09:52:28;;;;;;;4.77;2.97;;;;;;;1.56;74.30;97901.62;124452;1145;22714;-59
2021/01/26 09:55:14;;;;;;;4.60;3.07;;;;;;;1.54;73.97;97903.73;124260;1146;23407;-60
2021/01/26 09:57:42;;;;;;;4.95;2.95;;;;;;;1.54;74.13;97908.28;119896;1147;22936;-58
2021/01/26 10:00:12;;;;;;;5.17;3.30;;;;;;;1.53;74.86;97912.84;119778;1147;23005;-59
2021/01/26 10:02:40;;;;;;;9.45;2.55;;;;;;;1.52;73.86;97913.08;119527;1148;22893;-60
2021/01/26 10:05:12;;;;;;;4.30;2.57;;;;;;;1.52;74.54;97915.75;124276;1145;22648;-59
2021/01/26 10:07:40;;;;;;;6.20;3.40;;;;;;;1.44;74.26;97910.78;124398;1146;23517;-59
2021/01/26 10:10:28;;;;;;;4.90;3.00;;;;;;;1.51;74.40;97914.94;124240;1145;22660;-59
2021/01/26 10:12:56;;;;;;;6.07;3.07;;;;;;;1.53;74.72;97933.48;124425;1146;22668;-59
2021/01/26 10:15:23;;;;;;;5.03;3.20;;;;;;;1.53;74.28;97930.81;124270;1146;22709;-59
2021/01/26 10:17:52;;;;;;;4.67;2.70;;;;;;;1.52;74.57;97935.36;124412;1146;22669;-59
2021/01/26 10:20:32;;;;;;;4.97;2.83;;;;;;;1.52;74.86;97927.31;124157;1146;22668;-59
2021/01/26 10:23:06;;;;;;;4.97;3.17;;;;;;;1.54;75.26;97935.94;124458;1145;22715;-59
2021/01/26 10:25:34;;;;;;;4.50;2.80;;;;;;;1.54;75.03;97943.17;124282;1146;25720;-59
2021/01/26 10:28:25;;;;;;;6.00;3.40;;;;;;;1.55;74.51;97931.39;124461;1146;22685;-59
2021/01/26 10:30:52;;;;;;;5.27;3.10;;;;;;;1.54;74.49;97948.55;124248;1146;22686;-59
2021/01/26 10:33:38;;;;;;;3.77;2.53;;;;;;;1.56;74.49;97954.48;124392;1146;22662;-59
2021/01/26 10:36:28;;;;;;;4.47;2.63;;;;;;;1.54;74.07;97957.41;124215;1146;22845;-60
2021/01/26 10:38:56;;;;;;;4.55;2.70;;;;;;;1.55;74.31;97964.41;124410;1145;22709;-59
2021/01/26 10:41:33;;;;;;;5.13;3.07;;;;;;;1.58;75.13;97973.86;124246;1146;22665;-59
2021/01/26 10:44:07;;;;;;;5.93;3.03;;;;;;;1.59;74.25;97970.09;124365;1145;22694;-59
2021/01/26 10:46:39;;;;;;;7.00;3.00;;;;;;;1.60;73.91;97983.28;124218;1146;23536;-59
2021/01/26 10:49:15;;;;;;;6.95;3.20;;;;;;;1.61;74.17;97984.91;124387;1146;22788;-59
2021/01/26 10:51:43;;;;;;;7.83;3.27;;;;;;;1.62;74.41;97986.55;124180;1146;22700;-59
2021/01/26 10:54:11;;;;;;;6.70;3.05;;;;;;;1.54;74.55;97970.83;124406;1145;22702;-59
2021/01/26 10:56:38;;;;;;;5.63;2.80;;;;;;;1.60;74.34;97983.28;124169;1146;23360;-59
2021/01/26 10:59:05;;;;;;;4.57;2.70;;;;;;;1.61;73.82;97990.28;124440;1146;22701;-58
2021/01/26 11:01:33;;;;;;;5.67;3.20;;;;;;;1.61;73.70;97984.91;124246;1145;22746;-60
2021/01/26 11:04:01;;;;;;;5.27;2.77;;;;;;;1.60;73.75;97994.02;124392;1146;22683;-59
2021/01/26 11:06:28;;;;;;;5.80;3.67;;;;;;;1.61;73.82;97995.65;121864;1146;26344;-60
2021/01/26 11:08:56;;;;;;;6.37;3.27;;;;;;;1.61;74.08;97994.83;119817;1146;22949;-60
2021/01/26 11:11:28;;;;;;;5.23;3.53;;;;;;;1.61;73.21;97995.65;119626;1147;22896;-61
2021/01/26 11:13:56;;;;;;;5.83;2.90;;;;;;;1.63;73.74;97985.49;124428;1146;22694;-59
2021/01/26 11:16:23;;;;;;;4.60;2.90;;;;;;;1.62;73.22;98002.66;124294;1146;22753;-59
2021/01/26 11:18:52;;;;;;;4.50;2.83;;;;;;;1.64;73.29;98015.84;124362;1146;22702;-59
2021/01/26 11:21:20;;;;;;;4.00;2.90;;;;;;;1.63;73.52;98017.70;124335;1146;22624;-59
2021/01/26 11:23:47;;;;;;;4.13;2.60;;;;;;;1.63;73.67;98015.02;124482;1146;22700;-59
2021/01/26 11:26:16;;;;;;;4.23;2.60;;;;;;;1.65;73.90;98023.66;124430;1146;22703;-59
2021/01/26 11:28:45;;;;;;;4.77;2.93;;;;;;;1.68;73.29;98019.69;124321;1146;22722;-59
2021/01/26 11:31:13;;;;;;;6.35;3.00;;;;;;;1.68;73.35;98023.19;124420;1146;23550;-59
2021/01/26 11:33:41;;;;;;;5.45;2.85;;;;;;;1.69;73.47;98029.38;124251;1145;22664;-59
2021/01/26 11:36:08;;;;;;;4.85;3.10;;;;;;;1.69;73.23;98038.25;124527;1146;22700;-59
2021/01/26 11:38:36;;;;;;;5.23;3.40;;;;;;;1.71;73.82;98036.14;124238;1146;22697;-58
2021/01/26 11:41:04;;;;;;;4.40;2.60;;;;;;;1.73;73.71;98041.28;124372;1146;22704;-59
2021/01/26 11:43:32;;;;;;;5.70;3.60;;;;;;;1.77;73.21;98045.10;124244;1146;22688;-59
2021/01/26 11:46:01;;;;;;;5.43;3.43;;;;;;;1.77;73.45;98037.86;124391;1146;22789;-59
2021/01/26 11:48:29;;;;;;;4.70;2.73;;;;;;;1.80;72.59;98046.50;124236;1146;22738;-59
2021/01/26 11:51:26;;;;;;;11.53;3.50;;;;;;;1.79;73.32;98048.37;124122;1110;23112;-59
2021/01/26 11:53:54;;;;;;;5.00;2.93;;;;;;;1.79;72.64;98053.73;128102;1110;22907;-60
2021/01/26 11:56:23;;;;;;;9.90;3.90;;;;;;;1.78;72.72;98058.30;128274;1112;22840;-60
2021/01/26 11:58:51;;;;;;;8.50;3.03;;;;;;;1.81;73.24;98058.88;128111;1110;22833;-60
2021/01/26 12:01:18;;;;;;;6.25;3.20;;;;;;;1.82;73.02;98066.70;128270;1111;23020;-60
2021/01/26 12:04:55;;;;;;;5.25;3.00;;;;;;;1.86;72.28;98069.73;124118;1111;26477;-59